sensor_id;sensor_type;location;lat;lon;timestamp;P1;durP1;ratioP1;P2;durP2;ratioP2
1753;SDS011;58380;48.312;9.246;2024-03-17T08:31:58;4.53;;;3.53;;
1753;SDS011;58380;48.312;9.246;2024-03-17T08:34:59;6.38;;;2.60;;
1753;SDS011;58380;48.312;9.246;2024-03-17T08:37:59;8.50;;;3.30;;
1753;SDS011;58380;48.312;9.246;2024-03-17T08:41:04;5.65;;;2.80;;
1753;SDS011;58380;48.312;9.246;2024-03-17T08:44:07;4.82;;;2.58;;
1753;SDS011;58380;48.312;9.246;2024-03-17T08:47:07;8.68;;;4.10;;
1753;SDS011;58380;48.312;9.246;2024-03-17T08:50:08;6.72;;;3.30;;
1753;SDS011;58380;48.312;9.246;2024-03-17T08:53:12;6.75;;;4.40;;
1753;SDS011;58380;48.312;9.246;2024-03-17T08:56:13;8.23;;;3.25;;
1753;SDS011;58380;48.312;9.246;2024-03-17T08:59:14;4.03;;;2.50;;
1753;SDS011;58380;48.312;9.246;2024-03-17T09:02:14;5.25;;;2.72;;
1753;SDS011;58380;48.312;9.246;2024-03-17T09:05:15;5.35;;;2.40;;
1753;SDS011;58380;48.312;9.246;2024-03-17T09:08:19;5.82;;;2.00;;
1753;SDS011;58380;48.312;9.246;2024-03-17T09:11:24;7.57;;;2.70;;
1753;SDS011;58380;48.312;9.246;2024-03-17T09:14:27;4.32;;;2.95;;
1753;SDS011;58380;48.312;9.246;2024-03-17T09:17:28;6.05;;;3.10;;
1753;SDS011;58380;48.312;9.246;2024-03-17T09:20:28;5.60;;;2.38;;
1753;SDS011;58380;48.312;9.246;2024-03-17T09:23:29;8.75;;;3.47;;
1753;SDS011;58380;48.312;9.246;2024-03-17T09:26:30;10.02;;;5.13;;
1753;SDS011;58380;48.312;9.246;2024-03-17T09:29:30;6.75;;;2.95;;
1753;SDS011;58380;48.312;9.246;2024-03-17T09:32:31;5.10;;;1.92;;
1753;SDS011;58380;48.312;9.246;2024-03-17T09:35:31;3.55;;;1.75;;
1753;SDS011;58380;48.312;9.246;2024-03-17T09:38:32;9.27;;;1.70;;
1753;SDS011;58380;48.312;9.246;2024-03-17T09:41:34;8.27;;;2.28;;
1753;SDS011;58380;48.312;9.246;2024-03-17T09:44:36;3.17;;;1.67;;
1753;SDS011;58380;48.312;9.246;2024-03-17T09:47:39;5.70;;;2.35;;
1753;SDS011;58380;48.312;9.246;2024-03-17T09:50:41;6.43;;;2.25;;
1753;SDS011;58380;48.312;9.246;2024-03-17T09:53:41;3.15;;;1.77;;
1753;SDS011;58380;48.312;9.246;2024-03-17T09:56:42;6.47;;;2.13;;
1753;SDS011;58380;48.312;9.246;2024-03-17T09:59:42;5.18;;;2.03;;
1753;SDS011;58380;48.312;9.246;2024-03-17T10:02:43;4.35;;;1.73;;
1753;SDS011;58380;48.312;9.246;2024-03-17T10:05:45;7.07;;;1.77;;
1753;SDS011;58380;48.312;9.246;2024-03-17T10:08:49;5.10;;;1.40;;
1753;SDS011;58380;48.312;9.246;2024-03-17T10:11:55;7.78;;;1.95;;
1753;SDS011;58380;48.312;9.246;2024-03-17T10:14:59;8.13;;;1.73;;
1753;SDS011;58380;48.312;9.246;2024-03-17T10:18:00;4.13;;;1.40;;
1753;SDS011;58380;48.312;9.246;2024-03-17T10:21:01;3.92;;;1.30;;
1753;SDS011;58380;48.312;9.246;2024-03-17T10:27:25;3.63;;;1.30;;
1753;SDS011;58380;48.312;9.246;2024-03-17T10:30:26;5.68;;;1.33;;
1753;SDS011;58380;48.312;9.246;2024-03-17T10:33:29;3.17;;;1.55;;
1753;SDS011;58380;48.312;9.246;2024-03-17T10:36:29;4.32;;;1.20;;
1753;SDS011;58380;48.312;9.246;2024-03-17T10:39:30;7.47;;;1.52;;
1753;SDS011;58380;48.312;9.246;2024-03-17T10:42:30;7.00;;;1.63;;
1753;SDS011;58380;48.312;9.246;2024-03-17T10:45:36;3.67;;;1.73;;
1753;SDS011;58380;48.312;9.246;2024-03-17T10:48:38;4.05;;;1.30;;
1753;SDS011;58380;48.312;9.246;2024-03-17T10:51:41;3.85;;;1.23;;
1753;SDS011;58380;48.312;9.246;2024-03-17T10:54:48;9.52;;;2.22;;
1753;SDS011;58380;48.312;9.246;2024-03-17T10:57:54;8.85;;;2.60;;
1753;SDS011;58380;48.312;9.246;2024-03-17T11:00:58;5.38;;;2.05;;
1753;SDS011;58380;48.312;9.246;2024-03-17T11:04:03;10.88;;;1.83;;
1753;SDS011;58380;48.312;9.246;2024-03-17T11:07:04;11.73;;;5.03;;
1753;SDS011;58380;48.312;9.246;2024-03-17T11:10:07;6.53;;;1.40;;
1753;SDS011;58380;48.312;9.246;2024-03-17T11:13:22;9.15;;;2.40;;
1753;SDS011;58380;48.312;9.246;2024-03-17T11:16:27;15.45;;;6.55;;
1753;SDS011;58380;48.312;9.246;2024-03-17T11:19:27;3.72;;;1.25;;
1753;SDS011;58380;48.312;9.246;2024-03-17T11:22:43;7.95;;;2.33;;
1753;SDS011;58380;48.312;9.246;2024-03-17T11:25:50;8.40;;;2.70;;
1753;SDS011;58380;48.312;9.246;2024-03-17T11:28:52;11.23;;;2.28;;
1753;SDS011;58380;48.312;9.246;2024-03-17T11:31:53;6.47;;;2.50;;
1753;SDS011;58380;48.312;9.246;2024-03-17T11:35:12;7.43;;;2.30;;
1753;SDS011;58380;48.312;9.246;2024-03-17T11:38:50;6.43;;;1.10;;
1753;SDS011;58380;48.312;9.246;2024-03-17T11:41:55;3.90;;;1.30;;
1753;SDS011;58380;48.312;9.246;2024-03-17T11:44:56;2.33;;;1.38;;
1753;SDS011;58380;48.312;9.246;2024-03-17T11:48:04;6.28;;;2.03;;
1753;SDS011;58380;48.312;9.246;2024-03-17T11:51:14;4.75;;;1.48;;
1753;SDS011;58380;48.312;9.246;2024-03-17T11:54:17;9.80;;;4.07;;
1753;SDS011;58380;48.312;9.246;2024-03-17T12:00:24;5.43;;;1.40;;
1753;SDS011;58380;48.312;9.246;2024-03-17T12:03:25;5.70;;;1.30;;
1753;SDS011;58380;48.312;9.246;2024-03-17T12:06:26;4.55;;;0.90;;
1753;SDS011;58380;48.312;9.246;2024-03-17T12:09:28;6.85;;;1.40;;
1753;SDS011;58380;48.312;9.246;2024-03-17T12:12:31;6.20;;;1.30;;
1753;SDS011;58380;48.312;9.246;2024-03-17T12:15:35;4.60;;;1.00;;
1753;SDS011;58380;48.312;9.246;2024-03-17T12:18:35;4.22;;;0.90;;
1753;SDS011;58380;48.312;9.246;2024-03-17T12:21:40;5.03;;;0.90;;
1753;SDS011;58380;48.312;9.246;2024-03-17T12:24:45;5.80;;;1.20;;
1753;SDS011;58380;48.312;9.246;2024-03-17T12:27:46;3.15;;;1.20;;
1753;SDS011;58380;48.312;9.246;2024-03-17T12:30:48;3.83;;;1.13;;
1753;SDS011;58380;48.312;9.246;2024-03-17T12:33:49;2.25;;;0.75;;
1753;SDS011;58380;48.312;9.246;2024-03-17T12:36:49;5.68;;;1.40;;
1753;SDS011;58380;48.312;9.246;2024-03-17T12:39:51;6.90;;;1.05;;
1753;SDS011;58380;48.312;9.246;2024-03-17T12:42:51;9.48;;;3.70;;
1753;SDS011;58380;48.312;9.246;2024-03-17T12:45:55;3.13;;;0.80;;
1753;SDS011;58380;48.312;9.246;2024-03-17T12:48:59;4.15;;;1.20;;
1753;SDS011;58380;48.312;9.246;2024-03-17T12:52:00;3.75;;;0.90;;
1753;SDS011;58380;48.312;9.246;2024-03-17T12:55:08;3.70;;;1.10;;
1753;SDS011;58380;48.312;9.246;2024-03-17T12:58:28;4.40;;;0.82;;
1753;SDS011;58380;48.312;9.246;2024-03-17T13:04:47;4.55;;;0.98;;
1753;SDS011;58380;48.312;9.246;2024-03-17T13:07:50;4.18;;;0.73;;
1753;SDS011;58380;48.312;9.246;2024-03-17T13:10:50;6.13;;;1.27;;
1753;SDS011;58380;48.312;9.246;2024-03-17T13:13:51;3.15;;;1.00;;
1753;SDS011;58380;48.312;9.246;2024-03-17T13:16:53;3.30;;;0.98;;
1753;SDS011;58380;48.312;9.246;2024-03-17T13:19:53;3.85;;;1.05;;
1753;SDS011;58380;48.312;9.246;2024-03-17T13:22:53;1.67;;;0.93;;
1753;SDS011;58380;48.312;9.246;2024-03-17T13:25:54;2.28;;;1.08;;
1753;SDS011;58380;48.312;9.246;2024-03-17T13:28:54;1.95;;;0.68;;
1753;SDS011;58380;48.312;9.246;2024-03-17T13:31:55;6.05;;;1.48;;
1753;SDS011;58380;48.312;9.246;2024-03-17T13:34:55;4.10;;;1.60;;
1753;SDS011;58380;48.312;9.246;2024-03-17T13:37:56;2.92;;;0.80;;
1753;SDS011;58380;48.312;9.246;2024-03-17T13:41:02;2.90;;;0.68;;
1753;SDS011;58380;48.312;9.246;2024-03-17T13:44:04;4.55;;;1.30;;
1753;SDS011;58380;48.312;9.246;2024-03-17T13:47:05;4.78;;;1.10;;
1753;SDS011;58380;48.312;9.246;2024-03-17T13:50:06;4.03;;;1.25;;
1753;SDS011;58380;48.312;9.246;2024-03-17T13:53:11;4.43;;;1.20;;
1753;SDS011;58380;48.312;9.246;2024-03-17T13:56:11;5.25;;;1.38;;
1753;SDS011;58380;48.312;9.246;2024-03-17T13:59:13;3.92;;;1.20;;
1753;SDS011;58380;48.312;9.246;2024-03-17T14:02:16;3.72;;;0.85;;
1753;SDS011;58380;48.312;9.246;2024-03-17T14:05:17;2.80;;;0.80;;
1753;SDS011;58380;48.312;9.246;2024-03-17T14:08:23;4.50;;;1.85;;
1753;SDS011;58380;48.312;9.246;2024-03-17T14:11:23;2.67;;;1.00;;
1753;SDS011;58380;48.312;9.246;2024-03-17T14:14:23;3.00;;;0.65;;
1753;SDS011;58380;48.312;9.246;2024-03-17T14:17:24;5.40;;;2.10;;
1753;SDS011;58380;48.312;9.246;2024-03-17T14:20:24;6.82;;;2.60;;
1753;SDS011;58380;48.312;9.246;2024-03-17T14:23:25;2.53;;;0.98;;
1753;SDS011;58380;48.312;9.246;2024-03-17T14:26:25;3.08;;;1.10;;
1753;SDS011;58380;48.312;9.246;2024-03-17T14:29:26;6.35;;;1.88;;
1753;SDS011;58380;48.312;9.246;2024-03-17T14:32:26;7.45;;;4.13;;
1753;SDS011;58380;48.312;9.246;2024-03-17T14:35:27;7.95;;;2.00;;
1753;SDS011;58380;48.312;9.246;2024-03-17T14:38:28;6.03;;;1.48;;
1753;SDS011;58380;48.312;9.246;2024-03-17T14:41:29;3.40;;;1.30;;
1753;SDS011;58380;48.312;9.246;2024-03-17T14:44:30;3.03;;;1.40;;
1753;SDS011;58380;48.312;9.246;2024-03-17T14:47:31;3.65;;;1.20;;
1753;SDS011;58380;48.312;9.246;2024-03-17T14:50:31;6.10;;;1.90;;
1753;SDS011;58380;48.312;9.246;2024-03-17T14:53:31;2.03;;;0.85;;
1753;SDS011;58380;48.312;9.246;2024-03-17T14:56:32;4.78;;;1.55;;
1753;SDS011;58380;48.312;9.246;2024-03-17T14:59:33;1.48;;;0.68;;
1753;SDS011;58380;48.312;9.246;2024-03-17T15:02:34;3.65;;;0.90;;
1753;SDS011;58380;48.312;9.246;2024-03-17T15:05:34;7.47;;;1.73;;
1753;SDS011;58380;48.312;9.246;2024-03-17T15:08:34;5.22;;;1.67;;
1753;SDS011;58380;48.312;9.246;2024-03-17T15:11:35;3.17;;;1.10;;
1753;SDS011;58380;48.312;9.246;2024-03-17T15:14:35;3.83;;;0.70;;
1753;SDS011;58380;48.312;9.246;2024-03-17T15:17:37;6.57;;;2.45;;
1753;SDS011;58380;48.312;9.246;2024-03-17T15:20:38;5.30;;;1.25;;
1753;SDS011;58380;48.312;9.246;2024-03-17T15:23:38;4.50;;;1.27;;
1753;SDS011;58380;48.312;9.246;2024-03-17T15:26:39;3.92;;;1.60;;
1753;SDS011;58380;48.312;9.246;2024-03-17T15:29:40;5.20;;;1.10;;
1753;SDS011;58380;48.312;9.246;2024-03-17T15:32:44;6.45;;;1.52;;
1753;SDS011;58380;48.312;9.246;2024-03-17T15:35:46;6.95;;;2.90;;
1753;SDS011;58380;48.312;9.246;2024-03-17T15:38:46;3.60;;;1.52;;
1753;SDS011;58380;48.312;9.246;2024-03-17T15:41:47;6.05;;;1.30;;
1753;SDS011;58380;48.312;9.246;2024-03-17T15:44:48;2.03;;;0.88;;
1753;SDS011;58380;48.312;9.246;2024-03-17T15:47:48;4.05;;;0.80;;
1753;SDS011;58380;48.312;9.246;2024-03-17T15:50:56;2.92;;;0.80;;
1753;SDS011;58380;48.312;9.246;2024-03-17T15:53:58;4.35;;;0.98;;
1753;SDS011;58380;48.312;9.246;2024-03-17T15:56:58;3.50;;;0.90;;
1753;SDS011;58380;48.312;9.246;2024-03-17T15:59:59;5.35;;;0.98;;
1753;SDS011;58380;48.312;9.246;2024-03-17T16:02:59;5.40;;;1.95;;
1753;SDS011;58380;48.312;9.246;2024-03-17T16:06:07;7.30;;;2.00;;
1753;SDS011;58380;48.312;9.246;2024-03-17T16:09:12;7.40;;;3.95;;
1753;SDS011;58380;48.312;9.246;2024-03-17T16:12:14;4.43;;;2.30;;
1753;SDS011;58380;48.312;9.246;2024-03-17T16:15:14;5.90;;;2.80;;
1753;SDS011;58380;48.312;9.246;2024-03-17T16:18:17;5.50;;;2.13;;
1753;SDS011;58380;48.312;9.246;2024-03-17T16:21:19;6.20;;;2.97;;
1753;SDS011;58380;48.312;9.246;2024-03-17T16:24:22;7.47;;;1.50;;
1753;SDS011;58380;48.312;9.246;2024-03-17T16:27:22;6.25;;;3.13;;
1753;SDS011;58380;48.312;9.246;2024-03-17T16:30:23;8.20;;;2.50;;
1753;SDS011;58380;48.312;9.246;2024-03-17T16:33:23;5.65;;;2.35;;
1753;SDS011;58380;48.312;9.246;2024-03-17T16:36:26;15.32;;;7.15;;
1753;SDS011;58380;48.312;9.246;2024-03-17T16:39:27;18.50;;;7.68;;
1753;SDS011;58380;48.312;9.246;2024-03-17T16:42:30;12.68;;;5.20;;
1753;SDS011;58380;48.312;9.246;2024-03-17T16:45:30;13.27;;;4.97;;
1753;SDS011;58380;48.312;9.246;2024-03-17T16:48:33;12.73;;;4.63;;
1753;SDS011;58380;48.312;9.246;2024-03-17T16:51:34;9.77;;;3.60;;
1753;SDS011;58380;48.312;9.246;2024-03-17T16:54:34;14.10;;;4.22;;
1753;SDS011;58380;48.312;9.246;2024-03-17T16:57:36;9.57;;;3.42;;
1753;SDS011;58380;48.312;9.246;2024-03-17T17:00:37;9.43;;;3.47;;
1753;SDS011;58380;48.312;9.246;2024-03-17T17:03:37;16.35;;;6.03;;
1753;SDS011;58380;48.312;9.246;2024-03-17T17:06:38;11.10;;;5.55;;
1753;SDS011;58380;48.312;9.246;2024-03-17T17:09:39;16.00;;;6.07;;
1753;SDS011;58380;48.312;9.246;2024-03-17T17:12:39;11.05;;;5.22;;
1753;SDS011;58380;48.312;9.246;2024-03-17T17:15:41;14.30;;;5.32;;
1753;SDS011;58380;48.312;9.246;2024-03-17T17:18:50;10.52;;;4.60;;
1753;SDS011;58380;48.312;9.246;2024-03-17T17:22:06;9.32;;;2.97;;
1753;SDS011;58380;48.312;9.246;2024-03-17T17:25:13;5.65;;;2.65;;
1753;SDS011;58380;48.312;9.246;2024-03-17T17:28:15;9.70;;;3.72;;
1753;SDS011;58380;48.312;9.246;2024-03-17T17:31:15;11.45;;;4.05;;
1753;SDS011;58380;48.312;9.246;2024-03-17T17:34:17;11.38;;;4.57;;
1753;SDS011;58380;48.312;9.246;2024-03-17T17:37:17;10.10;;;4.30;;
1753;SDS011;58380;48.312;9.246;2024-03-17T17:40:18;11.20;;;4.97;;
1753;SDS011;58380;48.312;9.246;2024-03-17T17:43:18;8.32;;;3.50;;
1753;SDS011;58380;48.312;9.246;2024-03-17T17:46:22;10.07;;;3.13;;
1753;SDS011;58380;48.312;9.246;2024-03-17T17:49:25;7.72;;;2.60;;
1753;SDS011;58380;48.312;9.246;2024-03-17T17:52:26;8.35;;;2.80;;
1753;SDS011;58380;48.312;9.246;2024-03-17T17:55:28;14.80;;;6.18;;
1753;SDS011;58380;48.312;9.246;2024-03-17T17:58:29;34.67;;;15.68;;
1753;SDS011;58380;48.312;9.246;2024-03-17T18:01:29;25.65;;;11.85;;
1753;SDS011;58380;48.312;9.246;2024-03-17T18:04:29;29.95;;;12.30;;
1753;SDS011;58380;48.312;9.246;2024-03-17T18:07:30;59.40;;;25.88;;
1753;SDS011;58380;48.312;9.246;2024-03-17T18:10:36;38.92;;;17.45;;
1753;SDS011;58380;48.312;9.246;2024-03-17T18:13:37;15.18;;;7.50;;
1753;SDS011;58380;48.312;9.246;2024-03-17T18:16:38;9.35;;;4.50;;
1753;SDS011;58380;48.312;9.246;2024-03-17T18:19:38;9.20;;;3.92;;
1753;SDS011;58380;48.312;9.246;2024-03-17T18:22:39;9.68;;;2.72;;
1753;SDS011;58380;48.312;9.246;2024-03-17T18:25:39;18.23;;;7.18;;
1753;SDS011;58380;48.312;9.246;2024-03-17T18:28:43;14.27;;;6.75;;
1753;SDS011;58380;48.312;9.246;2024-03-17T18:31:46;14.65;;;7.60;;
1753;SDS011;58380;48.312;9.246;2024-03-17T18:34:47;15.07;;;6.32;;
1753;SDS011;58380;48.312;9.246;2024-03-17T18:37:47;11.65;;;4.28;;
1753;SDS011;58380;48.312;9.246;2024-03-17T18:40:57;11.68;;;4.05;;
1753;SDS011;58380;48.312;9.246;2024-03-17T18:44:04;10.73;;;3.72;;
1753;SDS011;58380;48.312;9.246;2024-03-17T18:47:04;10.35;;;4.00;;
1753;SDS011;58380;48.312;9.246;2024-03-17T18:50:05;10.85;;;4.18;;
1753;SDS011;58380;48.312;9.246;2024-03-17T18:53:07;10.35;;;3.45;;
1753;SDS011;58380;48.312;9.246;2024-03-17T18:56:07;10.68;;;4.10;;
1753;SDS011;58380;48.312;9.246;2024-03-17T18:59:08;10.73;;;4.35;;
1753;SDS011;58380;48.312;9.246;2024-03-17T19:02:09;6.72;;;3.42;;
1753;SDS011;58380;48.312;9.246;2024-03-17T19:05:12;8.43;;;3.33;;
1753;SDS011;58380;48.312;9.246;2024-03-17T19:08:12;7.57;;;3.00;;
1753;SDS011;58380;48.312;9.246;2024-03-17T19:11:13;8.68;;;3.53;;
1753;SDS011;58380;48.312;9.246;2024-03-17T19:14:14;9.32;;;4.70;;
1753;SDS011;58380;48.312;9.246;2024-03-17T19:17:15;8.82;;;4.10;;
1753;SDS011;58380;48.312;9.246;2024-03-17T19:20:15;8.25;;;3.70;;
1753;SDS011;58380;48.312;9.246;2024-03-17T19:23:16;11.48;;;4.47;;
1753;SDS011;58380;48.312;9.246;2024-03-17T19:26:16;14.57;;;5.35;;
1753;SDS011;58380;48.312;9.246;2024-03-17T19:29:21;11.90;;;5.50;;
1753;SDS011;58380;48.312;9.246;2024-03-17T19:32:21;8.23;;;4.20;;
1753;SDS011;58380;48.312;9.246;2024-03-17T19:35:22;9.57;;;4.43;;
1753;SDS011;58380;48.312;9.246;2024-03-17T19:38:23;7.00;;;3.00;;
1753;SDS011;58380;48.312;9.246;2024-03-17T19:41:24;7.95;;;2.60;;
1753;SDS011;58380;48.312;9.246;2024-03-17T19:44:25;2.85;;;1.60;;
1753;SDS011;58380;48.312;9.246;2024-03-17T19:47:26;5.85;;;1.90;;
1753;SDS011;58380;48.312;9.246;2024-03-17T19:50:29;7.05;;;2.25;;
1753;SDS011;58380;48.312;9.246;2024-03-17T19:53:30;11.32;;;2.70;;
1753;SDS011;58380;48.312;9.246;2024-03-17T19:56:31;7.15;;;2.60;;
1753;SDS011;58380;48.312;9.246;2024-03-17T19:59:32;11.13;;;1.98;;
1753;SDS011;58380;48.312;9.246;2024-03-17T20:02:32;7.10;;;1.42;;
1753;SDS011;58380;48.312;9.246;2024-03-17T20:05:33;3.35;;;1.40;;
1753;SDS011;58380;48.312;9.246;2024-03-17T20:08:34;6.65;;;1.50;;
1753;SDS011;58380;48.312;9.246;2024-03-17T20:11:35;9.07;;;1.85;;
1753;SDS011;58380;48.312;9.246;2024-03-17T20:14:36;5.43;;;2.03;;
1753;SDS011;58380;48.312;9.246;2024-03-17T20:17:38;4.75;;;1.55;;
1753;SDS011;58380;48.312;9.246;2024-03-17T20:20:38;5.00;;;1.48;;
1753;SDS011;58380;48.312;9.246;2024-03-17T20:23:39;4.32;;;1.65;;
1753;SDS011;58380;48.312;9.246;2024-03-17T20:26:39;6.63;;;1.88;;
1753;SDS011;58380;48.312;9.246;2024-03-17T20:29:40;8.15;;;1.98;;
1753;SDS011;58380;48.312;9.246;2024-03-17T20:32:40;5.20;;;1.65;;
1753;SDS011;58380;48.312;9.246;2024-03-17T20:35:41;5.15;;;2.03;;
1753;SDS011;58380;48.312;9.246;2024-03-17T20:38:41;6.53;;;1.88;;
1753;SDS011;58380;48.312;9.246;2024-03-17T20:41:43;4.72;;;1.38;;
1753;SDS011;58380;48.312;9.246;2024-03-17T20:44:43;7.05;;;1.73;;
1753;SDS011;58380;48.312;9.246;2024-03-17T20:47:43;5.32;;;1.98;;
1753;SDS011;58380;48.312;9.246;2024-03-17T20:50:44;6.00;;;1.77;;
1753;SDS011;58380;48.312;9.246;2024-03-17T20:53:44;5.40;;;1.63;;
1753;SDS011;58380;48.312;9.246;2024-03-17T20:56:45;8.88;;;1.98;;
1753;SDS011;58380;48.312;9.246;2024-03-17T20:59:45;10.10;;;2.05;;
1753;SDS011;58380;48.312;9.246;2024-03-17T21:02:49;9.75;;;2.08;;
1753;SDS011;58380;48.312;9.246;2024-03-17T21:05:52;7.43;;;2.30;;
1753;SDS011;58380;48.312;9.246;2024-03-17T21:08:52;5.35;;;2.13;;
1753;SDS011;58380;48.312;9.246;2024-03-17T21:11:53;7.40;;;2.10;;
1753;SDS011;58380;48.312;9.246;2024-03-17T21:14:56;5.53;;;2.22;;
1753;SDS011;58380;48.312;9.246;2024-03-17T21:17:56;7.60;;;2.15;;
1753;SDS011;58380;48.312;9.246;2024-03-17T21:21:00;7.53;;;1.98;;
1753;SDS011;58380;48.312;9.246;2024-03-17T21:24:04;6.93;;;2.15;;
1753;SDS011;58380;48.312;9.246;2024-03-17T21:27:04;6.57;;;2.25;;
1753;SDS011;58380;48.312;9.246;2024-03-17T21:30:05;10.00;;;2.60;;
1753;SDS011;58380;48.312;9.246;2024-03-17T21:33:06;7.28;;;2.75;;
1753;SDS011;58380;48.312;9.246;2024-03-17T21:36:07;7.82;;;2.78;;
1753;SDS011;58380;48.312;9.246;2024-03-17T21:39:07;11.07;;;3.67;;
1753;SDS011;58380;48.312;9.246;2024-03-17T21:42:08;8.60;;;4.70;;
1753;SDS011;58380;48.312;9.246;2024-03-17T21:45:09;10.90;;;6.20;;
1753;SDS011;58380;48.312;9.246;2024-03-17T21:48:12;11.90;;;6.63;;
1753;SDS011;58380;48.312;9.246;2024-03-17T21:51:12;11.18;;;6.05;;
1753;SDS011;58380;48.312;9.246;2024-03-17T21:54:13;12.20;;;4.47;;
1753;SDS011;58380;48.312;9.246;2024-03-17T21:57:13;9.80;;;4.68;;
